Nanticoke — WDC4353 — position and weather

sailwx.info

Track history (hours):
 
Tides and Currents Weather Stations Pressure Air Temp Water Temp Dewpoint Dewpoint Depression Visibility Wind Speed Wind Dir Waves Ship Positions

Nanticoke

Owner: Vane Line Bunkering, Baltimore, MD. More information available from US FCC via Universal Licensing System and Coast Guard Vessel Documentation Center.

Last reported at 2016-Sep-26 11:33 UTC. Time now 2016-Sep-26 12:21 UTC.
Position N 39°52' W 075°13'.

Length 34 m; draft 4.7 m.

Type: Towing. MMSI: 367023480.

Date/timePositionNaut miles runAvg speedWind from/ knotsBaromVisibWave heightAir tempDewpointWater temp
2016-Sep-26 11:33N 39°52' W 075°13'10 3.2
2016-Sep-26 08:33N 39°59' W 075°04'0 0.0
2016-Sep-26 02:34N 39°59' W 075°04'6 5.4
2016-Sep-26 01:33N 39°54' W 075°08'0 0.4
2016-Sep-26 00:33N 39°54' W 075°08'3 1.0
2016-Sep-25 21:33N 39°54' W 075°12'0 0.0
2016-Sep-25 17:33N 39°54' W 075°12'0 0.0
2016-Sep-25 16:33N 39°54' W 075°12'0 0.0
2016-Sep-25 15:33N 39°54' W 075°12'0 0.0
2016-Sep-25 14:33N 39°54' W 075°12'4 2.0
2016-Sep-25 12:33N 39°51' W 075°16'1111.4
2016-Sep-25 11:33N 39°45' W 075°29'1110.8
2016-Sep-25 10:33N 39°35' W 075°33'9 9.2
2016-Sep-25 09:33N 39°32' W 075°45'16 7.7
2016-Sep-25 07:33N 39°25' W 076°02'3010.0
2016-Sep-25 04:33N 38°59' W 076°23'4610.7
2016-Sep-25 00:14N 38°13' W 076°17'1710.1
2016-Sep-24 22:31N 37°56' W 076°12'57 9.5
2016-Sep-24 16:33N 36°60' W 076°11'12 5.8
2016-Sep-24 14:33N 36°49' W 076°17'1 0.6
2016-Sep-24 12:33N 36°48' W 076°18'0 0.0
2016-Sep-24 10:33N 36°48' W 076°18'0 0.0
2016-Sep-24 09:33N 36°48' W 076°18'0 0.0
2016-Sep-24 03:33N 36°48' W 076°18'0 0.0
2016-Sep-24 02:33N 36°48' W 076°18'0 0.0
2016-Sep-24 01:33N 36°48' W 076°18'2 1.8
2016-Sep-24 00:33N 36°50' W 076°18'64 7.9
2016-Sep-23 16:31N 37°53' W 076°10'1010.5
2016-Sep-23 15:33N 38°03' W 076°15'19 9.7
2016-Sep-23 13:33N 38°22' W 076°21'38 9.6
2016-Sep-23 09:33N 38°60' W 076°23'17 5.5
2016-Sep-23 06:33N 39°14' W 076°33'1 0.4
2016-Sep-23 04:33N 39°15' W 076°34'0 0.0
2016-Sep-23 03:33N 39°15' W 076°34'0 0.0
2016-Sep-23 02:33N 39°15' W 076°34'0 0.0
2016-Sep-23 01:33N 39°15' W 076°34'0 0.0
2016-Sep-23 00:33N 39°15' W 076°34'0 0.0
2016-Sep-22 23:33N 39°15' W 076°34'1 0.5
2016-Sep-22 20:33N 39°13' W 076°34'1 0.1
2016-Sep-22 12:33N 39°14' W 076°33'40 4.9
2016-Sep-22 04:26N 39°32' W 075°47'6 6.7
2016-Sep-22 03:29N 39°33' W 075°39'17 5.6
2016-Sep-22 00:30N 39°20' W 075°25'6 6.7
2016-Sep-21 23:34N 39°16' W 075°20'7 7.0
2016-Sep-21 22:33N 39°10' W 075°15'28 4.6
2016-Sep-21 16:30N 38°58' W 074°43'56 8.0
2016-Sep-21 09:33N 39°43' W 073°60'8 7.9
2016-Sep-21 08:33N 39°50' W 073°58'24 8.1
2016-Sep-21 05:33N 40°15' W 073°54'15 7.7
2016-Sep-21 03:33N 40°30' W 073°56'6 6.3
2016-Sep-21 02:33N 40°34' W 074°02'8 0.6
2016-Sep-20 13:06N 40°35' W 074°12'0 0.0
2016-Sep-20 10:26N 40°35' W 074°12'0 0.0
2016-Sep-20 07:27N 40°35' W 074°12'0 0.0
2016-Sep-20 06:12N 40°35' W 074°12'4 0.5
2016-Sep-19 23:22N 40°32' W 074°15'4 1.0
2016-Sep-19 19:32N 40°36' W 074°12'0 0.0
2016-Sep-19 18:33N 40°36' W 074°12'0 0.0
2016-Sep-19 16:33N 40°36' W 074°12'0 0.0
2016-Sep-19 14:31N 40°36' W 074°12'0 0.0
2016-Sep-19 13:33N 40°36' W 074°12'0 0.0
2016-Sep-19 12:14N 40°36' W 074°12'1 0.5
2016-Sep-19 09:09N 40°37' W 074°12'7 4.7
2016-Sep-19 07:33N 40°39' W 074°03'0 0.0
2016-Sep-19 06:33N 40°39' W 074°03'0 0.1
2016-Sep-19 03:33N 40°39' W 074°03'0 0.1
2016-Sep-19 02:33N 40°39' W 074°02'0 0.0
2016-Sep-19 00:33N 40°39' W 074°02'0 0.0
2016-Sep-18 19:33N 40°39' W 074°03'0 0.0
2016-Sep-18 15:33N 40°39' W 074°03'0 0.0
2016-Sep-18 14:34N 40°39' W 074°03'0 0.0
2016-Sep-18 10:33N 40°39' W 074°02'0 0.2
2016-Sep-18 09:33N 40°39' W 074°03'0 0.0
2016-Sep-18 02:33N 40°39' W 074°03'0 0.0
2016-Sep-18 01:33N 40°39' W 074°03'0 0.0
2016-Sep-18 00:33N 40°39' W 074°03'0 0.0
2016-Sep-17 22:33N 40°39' W 074°02'0 0.0
2016-Sep-17 21:33N 40°39' W 074°03'0 0.2
2016-Sep-17 20:33N 40°39' W 074°03'0 0.1
2016-Sep-17 19:16N 40°39' W 074°03'0 0.0
2016-Sep-17 13:33N 40°39' W 074°02'0 0.0
2016-Sep-17 12:33N 40°39' W 074°03'0 0.1
2016-Sep-17 10:33N 40°39' W 074°02'5 5.0
2016-Sep-17 09:33N 40°34' W 074°02'7 7.3
2016-Sep-17 08:33N 40°29' W 073°54'8 7.3
2016-Sep-17 07:32N 40°22' W 073°53'24 8.0
2016-Sep-17 04:30N 39°58' W 073°56'31 7.9
2016-Sep-17 00:33N 39°28' W 074°09'54 5.9
2016-Sep-16 15:25N 38°58' W 075°07'19 6.6
2016-Sep-16 12:34N 39°14' W 075°19'  
Track history (hours):
 
Tides and Currents Weather Stations Pressure Air Temp Water Temp Dewpoint Dewpoint Depression Visibility Wind Speed Wind Dir Waves Ship Positions

Nanticoke

Owner: Vane Line Bunkering, Baltimore, MD. More information available from US FCC via Universal Licensing System and Coast Guard Vessel Documentation Center.

Last reported at 2016-Sep-26 11:33 UTC. Time now 2016-Sep-26 12:21 UTC.
Position N 39°52' W 075°13'.

Length 34 m; draft 4.7 m.

Type: Towing. MMSI: 367023480.

Date/timePositionNaut miles runAvg speedWind from/ knotsBaromVisibWave heightAir tempDewpointWater temp
2016-Sep-26 11:33N 39°52' W 075°13'10 3.2
2016-Sep-26 08:33N 39°59' W 075°04'0 0.0
2016-Sep-26 02:34N 39°59' W 075°04'6 5.4
2016-Sep-26 01:33N 39°54' W 075°08'0 0.4
2016-Sep-26 00:33N 39°54' W 075°08'3 1.0
2016-Sep-25 21:33N 39°54' W 075°12'0 0.0
2016-Sep-25 17:33N 39°54' W 075°12'0 0.0
2016-Sep-25 16:33N 39°54' W 075°12'0 0.0
2016-Sep-25 15:33N 39°54' W 075°12'0 0.0
2016-Sep-25 14:33N 39°54' W 075°12'4 2.0
2016-Sep-25 12:33N 39°51' W 075°16'1111.4
2016-Sep-25 11:33N 39°45' W 075°29'1110.8
2016-Sep-25 10:33N 39°35' W 075°33'9 9.2
2016-Sep-25 09:33N 39°32' W 075°45'16 7.7
2016-Sep-25 07:33N 39°25' W 076°02'3010.0
2016-Sep-25 04:33N 38°59' W 076°23'4610.7
2016-Sep-25 00:14N 38°13' W 076°17'1710.1
2016-Sep-24 22:31N 37°56' W 076°12'57 9.5
2016-Sep-24 16:33N 36°60' W 076°11'12 5.8
2016-Sep-24 14:33N 36°49' W 076°17'1 0.6
2016-Sep-24 12:33N 36°48' W 076°18'0 0.0
2016-Sep-24 10:33N 36°48' W 076°18'0 0.0
2016-Sep-24 09:33N 36°48' W 076°18'0 0.0
2016-Sep-24 03:33N 36°48' W 076°18'0 0.0
2016-Sep-24 02:33N 36°48' W 076°18'0 0.0
2016-Sep-24 01:33N 36°48' W 076°18'2 1.8
2016-Sep-24 00:33N 36°50' W 076°18'64 7.9
2016-Sep-23 16:31N 37°53' W 076°10'1010.5
2016-Sep-23 15:33N 38°03' W 076°15'19 9.7
2016-Sep-23 13:33N 38°22' W 076°21'38 9.6
2016-Sep-23 09:33N 38°60' W 076°23'17 5.5
2016-Sep-23 06:33N 39°14' W 076°33'1 0.4
2016-Sep-23 04:33N 39°15' W 076°34'0 0.0
2016-Sep-23 03:33N 39°15' W 076°34'0 0.0
2016-Sep-23 02:33N 39°15' W 076°34'0 0.0
2016-Sep-23 01:33N 39°15' W 076°34'0 0.0
2016-Sep-23 00:33N 39°15' W 076°34'0 0.0
2016-Sep-22 23:33N 39°15' W 076°34'1 0.5
2016-Sep-22 20:33N 39°13' W 076°34'1 0.1
2016-Sep-22 12:33N 39°14' W 076°33'40 4.9
2016-Sep-22 04:26N 39°32' W 075°47'6 6.7
2016-Sep-22 03:29N 39°33' W 075°39'17 5.6
2016-Sep-22 00:30N 39°20' W 075°25'6 6.7
2016-Sep-21 23:34N 39°16' W 075°20'7 7.0
2016-Sep-21 22:33N 39°10' W 075°15'28 4.6
2016-Sep-21 16:30N 38°58' W 074°43'56 8.0
2016-Sep-21 09:33N 39°43' W 073°60'8 7.9
2016-Sep-21 08:33N 39°50' W 073°58'24 8.1
2016-Sep-21 05:33N 40°15' W 073°54'15 7.7
2016-Sep-21 03:33N 40°30' W 073°56'6 6.3
2016-Sep-21 02:33N 40°34' W 074°02'8 0.6
2016-Sep-20 13:06N 40°35' W 074°12'0 0.0
2016-Sep-20 10:26N 40°35' W 074°12'0 0.0
2016-Sep-20 07:27N 40°35' W 074°12'0 0.0
2016-Sep-20 06:12N 40°35' W 074°12'4 0.5
2016-Sep-19 23:22N 40°32' W 074°15'4 1.0
2016-Sep-19 19:32N 40°36' W 074°12'0 0.0
2016-Sep-19 18:33N 40°36' W 074°12'0 0.0
2016-Sep-19 16:33N 40°36' W 074°12'0 0.0
2016-Sep-19 14:31N 40°36' W 074°12'0 0.0
2016-Sep-19 13:33N 40°36' W 074°12'0 0.0
2016-Sep-19 12:14N 40°36' W 074°12'1 0.5
2016-Sep-19 09:09N 40°37' W 074°12'7 4.7
2016-Sep-19 07:33N 40°39' W 074°03'0 0.0
2016-Sep-19 06:33N 40°39' W 074°03'0 0.1
2016-Sep-19 03:33N 40°39' W 074°03'0 0.1
2016-Sep-19 02:33N 40°39' W 074°02'0 0.0
2016-Sep-19 00:33N 40°39' W 074°02'0 0.0
2016-Sep-18 19:33N 40°39' W 074°03'0 0.0
2016-Sep-18 15:33N 40°39' W 074°03'0 0.0
2016-Sep-18 14:34N 40°39' W 074°03'0 0.0
2016-Sep-18 10:33N 40°39' W 074°02'0 0.2
2016-Sep-18 09:33N 40°39' W 074°03'0 0.0
2016-Sep-18 02:33N 40°39' W 074°03'0 0.0
2016-Sep-18 01:33N 40°39' W 074°03'0 0.0
2016-Sep-18 00:33N 40°39' W 074°03'0 0.0
2016-Sep-17 22:33N 40°39' W 074°02'0 0.0
2016-Sep-17 21:33N 40°39' W 074°03'0 0.2
2016-Sep-17 20:33N 40°39' W 074°03'0 0.1
2016-Sep-17 19:16N 40°39' W 074°03'0 0.0
2016-Sep-17 13:33N 40°39' W 074°02'0 0.0
2016-Sep-17 12:33N 40°39' W 074°03'0 0.1
2016-Sep-17 10:33N 40°39' W 074°02'5 5.0
2016-Sep-17 09:33N 40°34' W 074°02'7 7.3
2016-Sep-17 08:33N 40°29' W 073°54'8 7.3
2016-Sep-17 07:32N 40°22' W 073°53'24 8.0
2016-Sep-17 04:30N 39°58' W 073°56'31 7.9
2016-Sep-17 00:33N 39°28' W 074°09'54 5.9
2016-Sep-16 15:25N 38°58' W 075°07'19 6.6
2016-Sep-16 12:34N 39°14' W 075°19'  

Dump ship's entire track history